sensor_id;sensor_type;location;lat;lon;timestamp;P1;durP1;ratioP1;P2;durP2;ratioP2
46447;SDS011;32145;50.390;30.778;2024-02-21T00:00:33;33.03;;;18.50;;
46447;SDS011;32145;50.390;30.778;2024-02-21T00:03:30;36.75;;;19.30;;
46447;SDS011;32145;50.390;30.778;2024-02-21T00:06:26;30.23;;;17.73;;
46447;SDS011;32145;50.390;30.778;2024-02-21T00:09:23;33.55;;;18.15;;
46447;SDS011;32145;50.390;30.778;2024-02-21T00:12:17;34.15;;;18.10;;
46447;SDS011;32145;50.390;30.778;2024-02-21T00:15:13;32.00;;;18.58;;
46447;SDS011;32145;50.390;30.778;2024-02-21T00:18:09;36.97;;;18.75;;
46447;SDS011;32145;50.390;30.778;2024-02-21T00:21:05;32.28;;;18.33;;
46447;SDS011;32145;50.390;30.778;2024-02-21T00:24:02;33.13;;;17.50;;
46447;SDS011;32145;50.390;30.778;2024-02-21T00:26:58;35.03;;;18.30;;
46447;SDS011;32145;50.390;30.778;2024-02-21T00:29:54;33.30;;;18.33;;
46447;SDS011;32145;50.390;30.778;2024-02-21T00:32:52;34.90;;;18.63;;
46447;SDS011;32145;50.390;30.778;2024-02-21T00:35:48;34.13;;;18.63;;
46447;SDS011;32145;50.390;30.778;2024-02-21T00:38:45;33.83;;;18.45;;
46447;SDS011;32145;50.390;30.778;2024-02-21T00:41:41;34.20;;;17.88;;
46447;SDS011;32145;50.390;30.778;2024-02-21T00:44:37;34.47;;;19.33;;
46447;SDS011;32145;50.390;30.778;2024-02-21T00:47:33;34.92;;;18.63;;
46447;SDS011;32145;50.390;30.778;2024-02-21T00:50:31;34.78;;;19.00;;
46447;SDS011;32145;50.390;30.778;2024-02-21T00:53:28;34.58;;;19.08;;
46447;SDS011;32145;50.390;30.778;2024-02-21T00:56:24;32.53;;;18.90;;
46447;SDS011;32145;50.390;30.778;2024-02-21T00:59:20;37.78;;;17.65;;
46447;SDS011;32145;50.390;30.778;2024-02-21T01:02:17;36.25;;;19.42;;
46447;SDS011;32145;50.390;30.778;2024-02-21T01:05:13;38.17;;;19.38;;
46447;SDS011;32145;50.390;30.778;2024-02-21T01:08:09;41.22;;;18.80;;
46447;SDS011;32145;50.390;30.778;2024-02-21T01:11:03;36.03;;;19.73;;
46447;SDS011;32145;50.390;30.778;2024-02-21T01:13:58;37.13;;;20.27;;
46447;SDS011;32145;50.390;30.778;2024-02-21T01:16:52;40.03;;;20.42;;
46447;SDS011;32145;50.390;30.778;2024-02-21T01:19:46;37.47;;;20.15;;
46447;SDS011;32145;50.390;30.778;2024-02-21T01:22:41;37.15;;;19.63;;
46447;SDS011;32145;50.390;30.778;2024-02-21T01:25:38;38.45;;;19.45;;
46447;SDS011;32145;50.390;30.778;2024-02-21T01:28:35;38.50;;;19.77;;
46447;SDS011;32145;50.390;30.778;2024-02-21T01:31:31;36.67;;;20.05;;
46447;SDS011;32145;50.390;30.778;2024-02-21T01:34:27;36.20;;;19.35;;
46447;SDS011;32145;50.390;30.778;2024-02-21T01:37:24;39.92;;;20.15;;
46447;SDS011;32145;50.390;30.778;2024-02-21T01:40:20;37.90;;;20.27;;
46447;SDS011;32145;50.390;30.778;2024-02-21T01:43:18;35.63;;;18.42;;
46447;SDS011;32145;50.390;30.778;2024-02-21T01:46:16;34.50;;;18.95;;
46447;SDS011;32145;50.390;30.778;2024-02-21T01:49:13;36.00;;;19.55;;
46447;SDS011;32145;50.390;30.778;2024-02-21T01:52:10;35.08;;;19.88;;
46447;SDS011;32145;50.390;30.778;2024-02-21T01:55:08;38.28;;;20.27;;
46447;SDS011;32145;50.390;30.778;2024-02-21T01:58:07;36.33;;;19.73;;
46447;SDS011;32145;50.390;30.778;2024-02-21T02:01:05;39.17;;;19.63;;
46447;SDS011;32145;50.390;30.778;2024-02-21T02:04:00;37.75;;;20.33;;
46447;SDS011;32145;50.390;30.778;2024-02-21T02:06:54;37.67;;;20.60;;
46447;SDS011;32145;50.390;30.778;2024-02-21T02:09:50;40.60;;;21.05;;
46447;SDS011;32145;50.390;30.778;2024-02-21T02:12:44;34.78;;;18.92;;
46447;SDS011;32145;50.390;30.778;2024-02-21T02:15:39;34.45;;;19.58;;
46447;SDS011;32145;50.390;30.778;2024-02-21T02:18:35;37.35;;;20.73;;
46447;SDS011;32145;50.390;30.778;2024-02-21T02:21:30;40.00;;;20.65;;
46447;SDS011;32145;50.390;30.778;2024-02-21T02:24:30;34.30;;;19.05;;
46447;SDS011;32145;50.390;30.778;2024-02-21T02:27:24;35.55;;;19.88;;
46447;SDS011;32145;50.390;30.778;2024-02-21T02:30:18;35.67;;;18.85;;
46447;SDS011;32145;50.390;30.778;2024-02-21T02:33:12;37.03;;;19.42;;
46447;SDS011;32145;50.390;30.778;2024-02-21T02:36:07;36.20;;;19.67;;
46447;SDS011;32145;50.390;30.778;2024-02-21T02:39:01;38.38;;;20.73;;
46447;SDS011;32145;50.390;30.778;2024-02-21T02:41:59;38.78;;;20.77;;
46447;SDS011;32145;50.390;30.778;2024-02-21T02:44:55;37.85;;;20.13;;
46447;SDS011;32145;50.390;30.778;2024-02-21T02:47:51;34.35;;;19.23;;
46447;SDS011;32145;50.390;30.778;2024-02-21T02:50:47;39.08;;;20.45;;
46447;SDS011;32145;50.390;30.778;2024-02-21T02:53:43;33.67;;;18.45;;
46447;SDS011;32145;50.390;30.778;2024-02-21T02:56:38;36.30;;;19.23;;
46447;SDS011;32145;50.390;30.778;2024-02-21T02:59:33;39.00;;;20.80;;
46447;SDS011;32145;50.390;30.778;2024-02-21T03:02:30;37.30;;;19.77;;
46447;SDS011;32145;50.390;30.778;2024-02-21T03:05:26;37.78;;;20.58;;
46447;SDS011;32145;50.390;30.778;2024-02-21T03:08:22;38.38;;;20.23;;
46447;SDS011;32145;50.390;30.778;2024-02-21T03:11:18;38.78;;;21.05;;
46447;SDS011;32145;50.390;30.778;2024-02-21T03:14:15;37.17;;;19.40;;
46447;SDS011;32145;50.390;30.778;2024-02-21T03:17:12;36.47;;;19.95;;
46447;SDS011;32145;50.390;30.778;2024-02-21T03:20:08;41.42;;;21.15;;
46447;SDS011;32145;50.390;30.778;2024-02-21T03:23:05;41.45;;;20.73;;
46447;SDS011;32145;50.390;30.778;2024-02-21T03:26:02;38.92;;;21.25;;
46447;SDS011;32145;50.390;30.778;2024-02-21T03:28:59;38.40;;;20.50;;
46447;SDS011;32145;50.390;30.778;2024-02-21T03:31:55;39.55;;;19.92;;
46447;SDS011;32145;50.390;30.778;2024-02-21T03:34:53;41.53;;;21.33;;
46447;SDS011;32145;50.390;30.778;2024-02-21T03:37:49;42.40;;;21.30;;
46447;SDS011;32145;50.390;30.778;2024-02-21T03:40:45;53.17;;;22.75;;
46447;SDS011;32145;50.390;30.778;2024-02-21T03:43:42;39.65;;;21.33;;
46447;SDS011;32145;50.390;30.778;2024-02-21T03:46:38;41.22;;;21.52;;
46447;SDS011;32145;50.390;30.778;2024-02-21T03:49:34;36.88;;;20.42;;
46447;SDS011;32145;50.390;30.778;2024-02-21T03:52:30;40.65;;;20.67;;
46447;SDS011;32145;50.390;30.778;2024-02-21T03:55:24;39.42;;;21.35;;
46447;SDS011;32145;50.390;30.778;2024-02-21T03:58:19;39.65;;;21.13;;
46447;SDS011;32145;50.390;30.778;2024-02-21T04:01:14;41.22;;;21.90;;
46447;SDS011;32145;50.390;30.778;2024-02-21T04:04:09;41.25;;;21.90;;
46447;SDS011;32145;50.390;30.778;2024-02-21T04:07:04;38.05;;;20.63;;
46447;SDS011;32145;50.390;30.778;2024-02-21T04:09:59;45.05;;;23.67;;
46447;SDS011;32145;50.390;30.778;2024-02-21T04:12:54;38.92;;;21.08;;
46447;SDS011;32145;50.390;30.778;2024-02-21T04:15:48;43.17;;;22.35;;
46447;SDS011;32145;50.390;30.778;2024-02-21T04:18:42;41.75;;;22.75;;
46447;SDS011;32145;50.390;30.778;2024-02-21T04:21:37;46.03;;;22.67;;
46447;SDS011;32145;50.390;30.778;2024-02-21T04:24:31;41.83;;;21.13;;
46447;SDS011;32145;50.390;30.778;2024-02-21T04:27:29;41.35;;;22.33;;
46447;SDS011;32145;50.390;30.778;2024-02-21T04:30:25;48.42;;;23.05;;
46447;SDS011;32145;50.390;30.778;2024-02-21T04:33:21;40.38;;;20.58;;
46447;SDS011;32145;50.390;30.778;2024-02-21T04:36:18;48.58;;;23.35;;
46447;SDS011;32145;50.390;30.778;2024-02-21T04:39:14;46.85;;;21.05;;
46447;SDS011;32145;50.390;30.778;2024-02-21T04:42:08;39.65;;;22.17;;
46447;SDS011;32145;50.390;30.778;2024-02-21T04:45:05;50.45;;;24.05;;
46447;SDS011;32145;50.390;30.778;2024-02-21T04:48:02;43.95;;;22.05;;
46447;SDS011;32145;50.390;30.778;2024-02-21T04:50:58;44.20;;;23.20;;
46447;SDS011;32145;50.390;30.778;2024-02-21T04:53:55;49.72;;;22.52;;
46447;SDS011;32145;50.390;30.778;2024-02-21T04:56:51;44.60;;;22.13;;
46447;SDS011;32145;50.390;30.778;2024-02-21T04:59:47;44.28;;;23.25;;
46447;SDS011;32145;50.390;30.778;2024-02-21T05:02:44;48.80;;;23.33;;
46447;SDS011;32145;50.390;30.778;2024-02-21T05:05:41;45.42;;;23.63;;
46447;SDS011;32145;50.390;30.778;2024-02-21T05:08:37;43.53;;;23.02;;
46447;SDS011;32145;50.390;30.778;2024-02-21T05:11:34;47.55;;;23.92;;
46447;SDS011;32145;50.390;30.778;2024-02-21T05:14:28;42.28;;;21.88;;
46447;SDS011;32145;50.390;30.778;2024-02-21T05:17:22;42.22;;;22.25;;
46447;SDS011;32145;50.390;30.778;2024-02-21T05:20:20;45.08;;;23.23;;
46447;SDS011;32145;50.390;30.778;2024-02-21T05:23:16;48.75;;;22.67;;
46447;SDS011;32145;50.390;30.778;2024-02-21T05:26:19;41.78;;;21.77;;
46447;SDS011;32145;50.390;30.778;2024-02-21T05:29:16;48.03;;;23.70;;
46447;SDS011;32145;50.390;30.778;2024-02-21T05:32:12;48.53;;;24.40;;
46447;SDS011;32145;50.390;30.778;2024-02-21T05:35:08;45.28;;;23.95;;
46447;SDS011;32145;50.390;30.778;2024-02-21T05:38:06;54.38;;;25.55;;
46447;SDS011;32145;50.390;30.778;2024-02-21T05:41:00;49.22;;;23.17;;
46447;SDS011;32145;50.390;30.778;2024-02-21T05:43:55;46.33;;;23.17;;
46447;SDS011;32145;50.390;30.778;2024-02-21T05:46:49;46.30;;;23.50;;
46447;SDS011;32145;50.390;30.778;2024-02-21T05:49:43;51.78;;;25.10;;
46447;SDS011;32145;50.390;30.778;2024-02-21T05:52:37;49.00;;;23.98;;
46447;SDS011;32145;50.390;30.778;2024-02-21T05:55:33;48.67;;;23.45;;
46447;SDS011;32145;50.390;30.778;2024-02-21T05:58:28;53.42;;;24.70;;
46447;SDS011;32145;50.390;30.778;2024-02-21T06:01:22;48.40;;;24.20;;
46447;SDS011;32145;50.390;30.778;2024-02-21T06:04:16;46.03;;;24.10;;
46447;SDS011;32145;50.390;30.778;2024-02-21T06:07:11;47.22;;;24.13;;
46447;SDS011;32145;50.390;30.778;2024-02-21T06:10:06;48.47;;;23.73;;
46447;SDS011;32145;50.390;30.778;2024-02-21T06:13:02;51.40;;;25.70;;
46447;SDS011;32145;50.390;30.778;2024-02-21T06:15:57;55.15;;;24.85;;
46447;SDS011;32145;50.390;30.778;2024-02-21T06:18:51;51.17;;;25.02;;
46447;SDS011;32145;50.390;30.778;2024-02-21T06:21:46;50.65;;;25.80;;
46447;SDS011;32145;50.390;30.778;2024-02-21T06:24:40;49.17;;;25.77;;
46447;SDS011;32145;50.390;30.778;2024-02-21T06:27:35;54.22;;;26.30;;
46447;SDS011;32145;50.390;30.778;2024-02-21T06:30:30;58.58;;;26.88;;
46447;SDS011;32145;50.390;30.778;2024-02-21T06:33:24;57.85;;;27.20;;
46447;SDS011;32145;50.390;30.778;2024-02-21T06:36:19;57.03;;;26.80;;
46447;SDS011;32145;50.390;30.778;2024-02-21T06:39:13;54.08;;;25.55;;
46447;SDS011;32145;50.390;30.778;2024-02-21T06:42:09;60.95;;;25.92;;
46447;SDS011;32145;50.390;30.778;2024-02-21T06:45:06;70.93;;;26.88;;
46447;SDS011;32145;50.390;30.778;2024-02-21T06:48:04;61.20;;;26.10;;
46447;SDS011;32145;50.390;30.778;2024-02-21T06:51:00;71.80;;;29.20;;
46447;SDS011;32145;50.390;30.778;2024-02-21T06:53:57;61.20;;;27.98;;
46447;SDS011;32145;50.390;30.778;2024-02-21T06:56:53;61.15;;;28.00;;
46447;SDS011;32145;50.390;30.778;2024-02-21T06:59:50;57.45;;;26.42;;
46447;SDS011;32145;50.390;30.778;2024-02-21T07:02:46;57.85;;;24.92;;
46447;SDS011;32145;50.390;30.778;2024-02-21T07:05:45;60.13;;;26.25;;
46447;SDS011;32145;50.390;30.778;2024-02-21T07:08:42;47.10;;;22.75;;
46447;SDS011;32145;50.390;30.778;2024-02-21T07:11:38;58.13;;;25.20;;
46447;SDS011;32145;50.390;30.778;2024-02-21T07:14:35;51.90;;;23.77;;
46447;SDS011;32145;50.390;30.778;2024-02-21T07:17:32;54.08;;;23.90;;
46447;SDS011;32145;50.390;30.778;2024-02-21T07:20:28;55.53;;;25.30;;
46447;SDS011;32145;50.390;30.778;2024-02-21T07:23:26;54.20;;;25.48;;
46447;SDS011;32145;50.390;30.778;2024-02-21T07:26:23;53.42;;;24.13;;
46447;SDS011;32145;50.390;30.778;2024-02-21T07:29:19;55.08;;;24.50;;
46447;SDS011;32145;50.390;30.778;2024-02-21T07:32:15;52.10;;;24.65;;
46447;SDS011;32145;50.390;30.778;2024-02-21T07:35:09;44.42;;;23.15;;
46447;SDS011;32145;50.390;30.778;2024-02-21T07:38:04;49.88;;;24.23;;
46447;SDS011;32145;50.390;30.778;2024-02-21T07:41:01;51.72;;;24.13;;
46447;SDS011;32145;50.390;30.778;2024-02-21T07:43:58;51.40;;;23.30;;
46447;SDS011;32145;50.390;30.778;2024-02-21T07:46:54;49.63;;;25.00;;
46447;SDS011;32145;50.390;30.778;2024-02-21T07:49:50;51.28;;;24.67;;
46447;SDS011;32145;50.390;30.778;2024-02-21T07:52:47;49.50;;;25.83;;
46447;SDS011;32145;50.390;30.778;2024-02-21T07:55:43;57.05;;;27.20;;
46447;SDS011;32145;50.390;30.778;2024-02-21T07:58:41;59.80;;;26.65;;
46447;SDS011;32145;50.390;30.778;2024-02-21T08:01:37;52.88;;;26.55;;
46447;SDS011;32145;50.390;30.778;2024-02-21T08:04:33;58.72;;;27.65;;
46447;SDS011;32145;50.390;30.778;2024-02-21T08:07:30;60.35;;;27.23;;
46447;SDS011;32145;50.390;30.778;2024-02-21T08:10:26;57.20;;;27.67;;
46447;SDS011;32145;50.390;30.778;2024-02-21T08:13:22;58.08;;;27.63;;
46447;SDS011;32145;50.390;30.778;2024-02-21T08:16:20;51.95;;;27.98;;
46447;SDS011;32145;50.390;30.778;2024-02-21T08:19:16;54.75;;;26.10;;
46447;SDS011;32145;50.390;30.778;2024-02-21T08:22:12;53.67;;;25.52;;
46447;SDS011;32145;50.390;30.778;2024-02-21T08:25:09;50.65;;;25.88;;
46447;SDS011;32145;50.390;30.778;2024-02-21T08:28:05;49.03;;;26.60;;
46447;SDS011;32145;50.390;30.778;2024-02-21T08:30:59;49.33;;;25.77;;
46447;SDS011;32145;50.390;30.778;2024-02-21T08:33:55;45.75;;;24.30;;
46447;SDS011;32145;50.390;30.778;2024-02-21T08:36:52;49.80;;;25.77;;
46447;SDS011;32145;50.390;30.778;2024-02-21T08:39:48;46.60;;;24.38;;
46447;SDS011;32145;50.390;30.778;2024-02-21T08:42:44;44.85;;;24.77;;
46447;SDS011;32145;50.390;30.778;2024-02-21T08:45:41;48.58;;;25.65;;
46447;SDS011;32145;50.390;30.778;2024-02-21T08:48:37;47.40;;;24.33;;
46447;SDS011;32145;50.390;30.778;2024-02-21T08:51:35;44.00;;;24.20;;
46447;SDS011;32145;50.390;30.778;2024-02-21T08:54:31;47.53;;;24.70;;
46447;SDS011;32145;50.390;30.778;2024-02-21T08:57:28;46.63;;;25.17;;
46447;SDS011;32145;50.390;30.778;2024-02-21T09:00:25;45.78;;;25.85;;
46447;SDS011;32145;50.390;30.778;2024-02-21T09:03:21;44.78;;;24.85;;
46447;SDS011;32145;50.390;30.778;2024-02-21T09:06:18;41.55;;;23.75;;
46447;SDS011;32145;50.390;30.778;2024-02-21T09:09:15;44.70;;;24.75;;
46447;SDS011;32145;50.390;30.778;2024-02-21T09:12:12;43.10;;;24.80;;
46447;SDS011;32145;50.390;30.778;2024-02-21T09:15:08;46.67;;;24.42;;
46447;SDS011;32145;50.390;30.778;2024-02-21T09:18:05;41.08;;;24.08;;
46447;SDS011;32145;50.390;30.778;2024-02-21T09:21:01;40.30;;;23.65;;
46447;SDS011;32145;50.390;30.778;2024-02-21T09:23:57;44.88;;;23.25;;
46447;SDS011;32145;50.390;30.778;2024-02-21T09:26:55;39.72;;;20.23;;
46447;SDS011;32145;50.390;30.778;2024-02-21T09:29:52;40.17;;;22.63;;
46447;SDS011;32145;50.390;30.778;2024-02-21T09:32:48;40.00;;;22.95;;
46447;SDS011;32145;50.390;30.778;2024-02-21T09:35:44;36.67;;;21.55;;
46447;SDS011;32145;50.390;30.778;2024-02-21T09:38:41;35.55;;;20.83;;
46447;SDS011;32145;50.390;30.778;2024-02-21T09:41:37;37.28;;;22.50;;
46447;SDS011;32145;50.390;30.778;2024-02-21T09:44:42;34.80;;;21.48;;
46447;SDS011;32145;50.390;30.778;2024-02-21T09:47:43;32.05;;;19.27;;
46447;SDS011;32145;50.390;30.778;2024-02-21T09:50:46;34.42;;;21.42;;
46447;SDS011;32145;50.390;30.778;2024-02-21T09:53:42;30.95;;;19.80;;
46447;SDS011;32145;50.390;30.778;2024-02-21T09:56:38;32.78;;;20.63;;
46447;SDS011;32145;50.390;30.778;2024-02-21T09:59:32;32.60;;;19.80;;
46447;SDS011;32145;50.390;30.778;2024-02-21T10:02:28;31.08;;;19.98;;
46447;SDS011;32145;50.390;30.778;2024-02-21T10:05:23;30.08;;;17.98;;
46447;SDS011;32145;50.390;30.778;2024-02-21T10:08:17;27.40;;;17.77;;
46447;SDS011;32145;50.390;30.778;2024-02-21T10:11:21;29.27;;;18.38;;
46447;SDS011;32145;50.390;30.778;2024-02-21T10:14:16;26.40;;;17.05;;
46447;SDS011;32145;50.390;30.778;2024-02-21T10:17:15;28.20;;;17.45;;
46447;SDS011;32145;50.390;30.778;2024-02-21T10:20:14;29.35;;;19.08;;
46447;SDS011;32145;50.390;30.778;2024-02-21T10:23:10;29.88;;;18.23;;
46447;SDS011;32145;50.390;30.778;2024-02-21T10:26:07;29.60;;;18.13;;
46447;SDS011;32145;50.390;30.778;2024-02-21T10:29:03;27.83;;;18.08;;
46447;SDS011;32145;50.390;30.778;2024-02-21T10:32:04;25.80;;;17.27;;
46447;SDS011;32145;50.390;30.778;2024-02-21T10:35:01;24.75;;;16.98;;
46447;SDS011;32145;50.390;30.778;2024-02-21T10:38:00;30.27;;;17.95;;
46447;SDS011;32145;50.390;30.778;2024-02-21T10:40:56;26.95;;;17.05;;
46447;SDS011;32145;50.390;30.778;2024-02-21T10:43:53;23.80;;;15.27;;
46447;SDS011;32145;50.390;30.778;2024-02-21T10:46:51;24.35;;;16.10;;
46447;SDS011;32145;50.390;30.778;2024-02-21T10:49:49;24.77;;;16.33;;
46447;SDS011;32145;50.390;30.778;2024-02-21T10:52:55;26.38;;;16.25;;
46447;SDS011;32145;50.390;30.778;2024-02-21T10:56:04;25.13;;;15.55;;
46447;SDS011;32145;50.390;30.778;2024-02-21T10:59:07;27.40;;;16.25;;
46447;SDS011;32145;50.390;30.778;2024-02-21T11:02:02;26.08;;;16.55;;
46447;SDS011;32145;50.390;30.778;2024-02-21T11:04:57;23.92;;;16.10;;
46447;SDS011;32145;50.390;30.778;2024-02-21T11:07:52;24.90;;;15.98;;
46447;SDS011;32145;50.390;30.778;2024-02-21T11:10:47;25.58;;;16.88;;
46447;SDS011;32145;50.390;30.778;2024-02-21T11:13:42;25.00;;;16.17;;
46447;SDS011;32145;50.390;30.778;2024-02-21T11:16:36;25.25;;;15.70;;
46447;SDS011;32145;50.390;30.778;2024-02-21T11:19:31;26.42;;;16.83;;
46447;SDS011;32145;50.390;30.778;2024-02-21T11:22:26;26.90;;;16.15;;
46447;SDS011;32145;50.390;30.778;2024-02-21T11:25:23;22.48;;;14.73;;
46447;SDS011;32145;50.390;30.778;2024-02-21T11:28:25;23.88;;;14.90;;
46447;SDS011;32145;50.390;30.778;2024-02-21T11:31:20;22.88;;;14.70;;
46447;SDS011;32145;50.390;30.778;2024-02-21T11:34:16;22.25;;;13.90;;
46447;SDS011;32145;50.390;30.778;2024-02-21T11:37:15;21.55;;;14.05;;
46447;SDS011;32145;50.390;30.778;2024-02-21T11:40:09;18.52;;;13.38;;
46447;SDS011;32145;50.390;30.778;2024-02-21T11:43:04;17.98;;;12.32;;
46447;SDS011;32145;50.390;30.778;2024-02-21T11:46:00;20.70;;;12.80;;
46447;SDS011;32145;50.390;30.778;2024-02-21T11:48:54;23.98;;;13.15;;
46447;SDS011;32145;50.390;30.778;2024-02-21T11:51:57;21.23;;;12.80;;
46447;SDS011;32145;50.390;30.778;2024-02-21T11:54:53;20.45;;;12.55;;
46447;SDS011;32145;50.390;30.778;2024-02-21T11:57:51;18.52;;;12.38;;
46447;SDS011;32145;50.390;30.778;2024-02-21T12:00:47;20.33;;;12.48;;
46447;SDS011;32145;50.390;30.778;2024-02-21T12:03:42;18.35;;;11.88;;
46447;SDS011;32145;50.390;30.778;2024-02-21T12:06:37;19.63;;;12.40;;
46447;SDS011;32145;50.390;30.778;2024-02-21T12:09:33;19.25;;;12.02;;
46447;SDS011;32145;50.390;30.778;2024-02-21T12:12:28;21.23;;;13.38;;
46447;SDS011;32145;50.390;30.778;2024-02-21T12:15:22;21.50;;;13.32;;
46447;SDS011;32145;50.390;30.778;2024-02-21T12:18:16;21.90;;;12.60;;
46447;SDS011;32145;50.390;30.778;2024-02-21T12:21:12;22.10;;;14.07;;
46447;SDS011;32145;50.390;30.778;2024-02-21T12:24:13;22.33;;;13.45;;
46447;SDS011;32145;50.390;30.778;2024-02-21T12:27:09;19.52;;;12.45;;
46447;SDS011;32145;50.390;30.778;2024-02-21T12:30:06;17.45;;;12.27;;
46447;SDS011;32145;50.390;30.778;2024-02-21T12:33:03;19.35;;;12.60;;
46447;SDS011;32145;50.390;30.778;2024-02-21T12:35:59;17.48;;;11.38;;
46447;SDS011;32145;50.390;30.778;2024-02-21T12:38:57;18.30;;;11.98;;
46447;SDS011;32145;50.390;30.778;2024-02-21T12:41:53;20.52;;;12.40;;
46447;SDS011;32145;50.390;30.778;2024-02-21T12:44:49;20.10;;;12.40;;
46447;SDS011;32145;50.390;30.778;2024-02-21T12:47:46;17.48;;;11.38;;
46447;SDS011;32145;50.390;30.778;2024-02-21T12:50:42;17.63;;;11.52;;
46447;SDS011;32145;50.390;30.778;2024-02-21T12:53:44;18.70;;;12.30;;
46447;SDS011;32145;50.390;30.778;2024-02-21T12:56:42;13.40;;;9.60;;
46447;SDS011;32145;50.390;30.778;2024-02-21T12:59:38;14.77;;;9.93;;
46447;SDS011;32145;50.390;30.778;2024-02-21T13:02:33;17.42;;;11.85;;
46447;SDS011;32145;50.390;30.778;2024-02-21T13:05:30;18.15;;;12.68;;
46447;SDS011;32145;50.390;30.778;2024-02-21T13:08:25;19.75;;;13.70;;
46447;SDS011;32145;50.390;30.778;2024-02-21T13:11:19;21.13;;;14.27;;
46447;SDS011;32145;50.390;30.778;2024-02-21T13:14:15;19.98;;;13.75;;
46447;SDS011;32145;50.390;30.778;2024-02-21T13:17:10;28.08;;;17.88;;
46447;SDS011;32145;50.390;30.778;2024-02-21T13:20:05;22.15;;;14.95;;
46447;SDS011;32145;50.390;30.778;2024-02-21T13:23:00;25.50;;;14.80;;
46447;SDS011;32145;50.390;30.778;2024-02-21T13:25:54;19.67;;;11.95;;
46447;SDS011;32145;50.390;30.778;2024-02-21T13:28:48;22.88;;;13.15;;
46447;SDS011;32145;50.390;30.778;2024-02-21T13:31:43;31.17;;;17.52;;
46447;SDS011;32145;50.390;30.778;2024-02-21T13:34:38;32.95;;;19.42;;
46447;SDS011;32145;50.390;30.778;2024-02-21T13:37:32;25.48;;;15.18;;
46447;SDS011;32145;50.390;30.778;2024-02-21T13:40:26;25.08;;;14.45;;
46447;SDS011;32145;50.390;30.778;2024-02-21T13:43:23;18.55;;;11.65;;
46447;SDS011;32145;50.390;30.778;2024-02-21T13:46:19;21.15;;;12.82;;
46447;SDS011;32145;50.390;30.778;2024-02-21T13:49:17;11.98;;;7.90;;
46447;SDS011;32145;50.390;30.778;2024-02-21T13:52:13;9.05;;;4.63;;
46447;SDS011;32145;50.390;30.778;2024-02-21T13:55:11;6.32;;;4.07;;
46447;SDS011;32145;50.390;30.778;2024-02-21T13:58:07;6.50;;;4.00;;
46447;SDS011;32145;50.390;30.778;2024-02-21T14:01:04;7.45;;;4.63;;
46447;SDS011;32145;50.390;30.778;2024-02-21T14:04:00;7.10;;;4.60;;
46447;SDS011;32145;50.390;30.778;2024-02-21T14:06:58;6.85;;;4.63;;
46447;SDS011;32145;50.390;30.778;2024-02-21T14:09:54;6.72;;;4.70;;
46447;SDS011;32145;50.390;30.778;2024-02-21T14:12:52;8.65;;;5.00;;
46447;SDS011;32145;50.390;30.778;2024-02-21T14:15:48;7.57;;;4.65;;
46447;SDS011;32145;50.390;30.778;2024-02-21T14:18:43;9.77;;;5.32;;
46447;SDS011;32145;50.390;30.778;2024-02-21T14:21:38;8.88;;;5.50;;
46447;SDS011;32145;50.390;30.778;2024-02-21T14:24:33;13.30;;;6.85;;
46447;SDS011;32145;50.390;30.778;2024-02-21T14:27:28;11.55;;;6.78;;
46447;SDS011;32145;50.390;30.778;2024-02-21T14:30:22;16.30;;;9.43;;
46447;SDS011;32145;50.390;30.778;2024-02-21T14:33:17;14.57;;;8.48;;
46447;SDS011;32145;50.390;30.778;2024-02-21T14:36:13;14.13;;;7.85;;
46447;SDS011;32145;50.390;30.778;2024-02-21T14:39:09;14.13;;;7.90;;
46447;SDS011;32145;50.390;30.778;2024-02-21T14:42:07;26.55;;;13.60;;
46447;SDS011;32145;50.390;30.778;2024-02-21T14:45:04;38.00;;;22.50;;
46447;SDS011;32145;50.390;30.778;2024-02-21T14:48:01;30.98;;;15.18;;
46447;SDS011;32145;50.390;30.778;2024-02-21T14:50:57;26.67;;;11.48;;
46447;SDS011;32145;50.390;30.778;2024-02-21T14:53:53;23.52;;;9.90;;
46447;SDS011;32145;50.390;30.778;2024-02-21T14:56:50;26.98;;;13.65;;
46447;SDS011;32145;50.390;30.778;2024-02-21T14:59:47;32.80;;;15.80;;
46447;SDS011;32145;50.390;30.778;2024-02-21T15:02:44;28.67;;;12.48;;
46447;SDS011;32145;50.390;30.778;2024-02-21T15:05:40;24.70;;;12.60;;
46447;SDS011;32145;50.390;30.778;2024-02-21T15:08:36;21.95;;;11.25;;
46447;SDS011;32145;50.390;30.778;2024-02-21T15:11:33;21.33;;;11.02;;
46447;SDS011;32145;50.390;30.778;2024-02-21T15:14:29;27.25;;;12.15;;
46447;SDS011;32145;50.390;30.778;2024-02-21T15:17:27;162.13;;;70.25;;
46447;SDS011;32145;50.390;30.778;2024-02-21T15:20:23;140.32;;;53.83;;
46447;SDS011;32145;50.390;30.778;2024-02-21T15:23:20;56.33;;;23.83;;
46447;SDS011;32145;50.390;30.778;2024-02-21T15:26:14;41.28;;;18.95;;
46447;SDS011;32145;50.390;30.778;2024-02-21T15:29:08;37.97;;;16.70;;
46447;SDS011;32145;50.390;30.778;2024-02-21T15:32:03;35.80;;;16.50;;
46447;SDS011;32145;50.390;30.778;2024-02-21T15:34:59;41.92;;;18.50;;
46447;SDS011;32145;50.390;30.778;2024-02-21T15:37:54;70.00;;;28.45;;
46447;SDS011;32145;50.390;30.778;2024-02-21T15:40:48;96.00;;;35.90;;
46447;SDS011;32145;50.390;30.778;2024-02-21T15:43:44;115.85;;;41.95;;
46447;SDS011;32145;50.390;30.778;2024-02-21T15:46:41;52.40;;;23.10;;
46447;SDS011;32145;50.390;30.778;2024-02-21T15:49:37;55.85;;;24.88;;
46447;SDS011;32145;50.390;30.778;2024-02-21T15:52:35;35.65;;;16.85;;
46447;SDS011;32145;50.390;30.778;2024-02-21T15:55:31;32.17;;;14.80;;
46447;SDS011;32145;50.390;30.778;2024-02-21T15:58:28;34.78;;;16.27;;
46447;SDS011;32145;50.390;30.778;2024-02-21T16:01:24;32.65;;;15.10;;
46447;SDS011;32145;50.390;30.778;2024-02-21T16:04:20;25.52;;;12.00;;
46447;SDS011;32145;50.390;30.778;2024-02-21T16:07:16;29.73;;;13.52;;
46447;SDS011;32145;50.390;30.778;2024-02-21T16:10:14;27.40;;;12.48;;
46447;SDS011;32145;50.390;30.778;2024-02-21T16:13:11;30.95;;;14.57;;
46447;SDS011;32145;50.390;30.778;2024-02-21T16:16:07;30.13;;;13.27;;
46447;SDS011;32145;50.390;30.778;2024-02-21T16:19:04;39.97;;;16.05;;
46447;SDS011;32145;50.390;30.778;2024-02-21T16:22:00;33.65;;;15.90;;
46447;SDS011;32145;50.390;30.778;2024-02-21T16:24:54;25.40;;;12.07;;
46447;SDS011;32145;50.390;30.778;2024-02-21T16:27:50;21.73;;;10.65;;
46447;SDS011;32145;50.390;30.778;2024-02-21T16:30:44;34.58;;;14.98;;
46447;SDS011;32145;50.390;30.778;2024-02-21T16:33:38;28.25;;;14.55;;
46447;SDS011;32145;50.390;30.778;2024-02-21T16:36:33;35.05;;;15.73;;
46447;SDS011;32145;50.390;30.778;2024-02-21T16:39:27;27.42;;;13.20;;
46447;SDS011;32145;50.390;30.778;2024-02-21T16:42:11;23.08;;;12.32;;
46447;SDS011;32145;50.390;30.778;2024-02-21T16:45:07;26.55;;;12.88;;
46447;SDS011;32145;50.390;30.778;2024-02-21T16:47:52;21.40;;;11.68;;
46447;SDS011;32145;50.390;30.778;2024-02-21T16:50:36;25.52;;;13.20;;
46447;SDS011;32145;50.390;30.778;2024-02-21T16:53:33;28.73;;;13.57;;
46447;SDS011;32145;50.390;30.778;2024-02-21T16:56:17;31.83;;;12.75;;